createdAt,value
2023-05-13T00:01:00.937Z,6.33
2023-05-13T00:03:28.997Z,6.13
2023-05-13T00:05:57.262Z,6.37
2023-05-13T00:08:28.691Z,5.23
2023-05-13T00:10:56.516Z,5.60
2023-05-13T00:13:24.349Z,5.40
2023-05-13T00:15:53.736Z,5.37
2023-05-13T00:18:21.728Z,6.10
2023-05-13T00:20:49.588Z,5.07
2023-05-13T00:23:17.512Z,4.83
2023-05-13T00:25:45.494Z,5.60
2023-05-13T00:28:15.005Z,5.97
2023-05-13T00:30:43.761Z,4.53
2023-05-13T00:33:13.111Z,4.20
2023-05-13T00:35:40.955Z,7.27
2023-05-13T00:38:08.879Z,5.50
2023-05-13T00:40:40.818Z,5.70
2023-05-13T00:43:08.647Z,6.77
2023-05-13T00:45:38.200Z,5.60
2023-05-13T00:48:07.692Z,6.60
2023-05-13T00:50:37.022Z,4.93
2023-05-13T00:53:05.126Z,6.80
2023-05-13T00:55:32.932Z,5.00
2023-05-13T00:58:00.981Z,5.53
2023-05-13T01:00:29.986Z,5.73
2023-05-13T01:03:06.169Z,6.53
2023-05-13T01:05:43.032Z,5.83
2023-05-13T01:08:21.435Z,5.17
2023-05-13T01:10:53.514Z,5.73
2023-05-13T01:13:25.336Z,6.13
2023-05-13T01:15:58.232Z,4.50
2023-05-13T01:18:30.094Z,4.60
2023-05-13T01:21:02.187Z,5.87
2023-05-13T01:23:31.421Z,5.83
2023-05-13T01:25:59.246Z,6.80
2023-05-13T01:28:27.169Z,6.63
2023-05-13T01:30:56.211Z,7.73
2023-05-13T01:33:25.556Z,6.87
2023-05-13T01:35:54.156Z,7.13
2023-05-13T01:38:22.769Z,6.10
2023-05-13T01:40:52.204Z,7.33
2023-05-13T01:43:20.054Z,5.37
2023-05-13T01:45:47.937Z,6.43
2023-05-13T01:48:15.744Z,6.93
2023-05-13T01:50:43.574Z,7.33
2023-05-13T01:53:12.252Z,6.50
2023-05-13T01:55:40.084Z,6.67
2023-05-13T01:58:09.246Z,8.60
2023-05-13T02:00:37.153Z,7.87
2023-05-13T02:03:05.153Z,8.17
2023-05-13T02:05:33.252Z,7.63
2023-05-13T02:08:01.137Z,8.30
2023-05-13T02:10:28.972Z,9.13
2023-05-13T02:12:56.906Z,8.20
2023-05-13T02:15:26.137Z,7.67
2023-05-13T02:17:53.986Z,8.87
2023-05-13T02:20:22.215Z,8.77
2023-05-13T02:22:50.219Z,9.63
2023-05-13T02:25:18.255Z,8.63
2023-05-13T02:27:46.041Z,7.57
2023-05-13T02:30:14.192Z,8.73
2023-05-13T02:32:44.026Z,10.13
2023-05-13T02:35:12.010Z,8.27
2023-05-13T02:37:39.846Z,8.87
2023-05-13T02:40:09.206Z,10.17
2023-05-13T02:42:37.071Z,9.37
2023-05-13T02:45:05.274Z,9.33
2023-05-13T02:47:33.063Z,10.13
2023-05-13T02:50:02.334Z,9.03
2023-05-13T02:52:30.251Z,9.63
2023-05-13T02:54:58.152Z,8.67
2023-05-13T02:57:26.012Z,9.33
2023-05-13T02:59:53.812Z,10.30
2023-05-13T03:02:21.944Z,10.10
2023-05-13T03:04:49.888Z,9.10
2023-05-13T03:07:19.027Z,10.60
2023-05-13T03:09:46.857Z,9.37
2023-05-13T03:12:15.060Z,9.50
2023-05-13T03:14:44.306Z,10.83
2023-05-13T03:17:12.375Z,11.70
2023-05-13T03:19:40.425Z,10.03
2023-05-13T03:22:08.457Z,10.13
2023-05-13T03:24:37.846Z,9.70
2023-05-13T03:27:06.040Z,10.90
2023-05-13T03:29:33.897Z,10.67
2023-05-13T03:32:01.721Z,9.57
2023-05-13T03:34:29.491Z,10.73
2023-05-13T03:36:57.309Z,11.17
2023-05-13T03:39:25.971Z,11.17
2023-05-13T03:41:55.160Z,9.23
2023-05-13T03:44:23.059Z,11.07
2023-05-13T03:46:50.966Z,9.53
2023-05-13T03:49:19.069Z,9.30
2023-05-13T03:51:46.907Z,11.33
2023-05-13T03:54:14.757Z,10.87
2023-05-13T03:56:42.584Z,11.67
2023-05-13T03:59:11.735Z,9.90
2023-05-13T04:01:40.844Z,10.50
2023-05-13T04:04:08.664Z,9.53
2023-05-13T04:06:37.511Z,9.90
2023-05-13T04:09:05.712Z,9.20
2023-05-13T04:11:33.661Z,11.70
2023-05-13T04:14:01.511Z,12.30
2023-05-13T04:16:30.768Z,11.73
2023-05-13T04:18:58.679Z,12.73
2023-05-13T04:21:26.561Z,11.07
2023-05-13T04:23:54.460Z,10.57
2023-05-13T04:26:22.768Z,10.10
2023-05-13T04:28:50.983Z,11.03
2023-05-13T04:31:21.349Z,9.63
2023-05-13T04:33:50.654Z,10.87
2023-05-13T04:36:18.448Z,10.30
2023-05-13T04:38:46.308Z,11.60
2023-05-13T04:41:14.152Z,10.47
2023-05-13T04:43:41.964Z,13.20
2023-05-13T04:46:09.834Z,10.03
2023-05-13T04:48:37.694Z,9.90
2023-05-13T04:51:07.125Z,10.93
2023-05-13T04:53:35.639Z,10.70
2023-05-13T04:56:03.616Z,10.07
2023-05-13T04:58:31.453Z,11.60
2023-05-13T05:00:59.279Z,9.80
2023-05-13T05:03:27.116Z,11.57
2023-05-13T05:05:54.926Z,9.93
2023-05-13T05:08:24.096Z,11.00
2023-05-13T05:10:52.024Z,12.07
2023-05-13T05:13:19.810Z,9.70
2023-05-13T05:15:47.663Z,11.40
2023-05-13T05:18:15.613Z,11.37
2023-05-13T05:20:43.503Z,10.77
2023-05-13T05:23:11.348Z,11.23
2023-05-13T05:25:40.506Z,11.53
2023-05-13T05:28:09.376Z,9.83
2023-05-13T05:30:40.362Z,10.47
2023-05-13T05:33:08.587Z,9.87
2023-05-13T05:35:37.284Z,12.00
2023-05-13T05:38:05.713Z,10.70
2023-05-13T05:40:33.881Z,10.53
2023-05-13T05:43:03.066Z,12.43
2023-05-13T05:45:30.867Z,11.50
2023-05-13T05:47:58.707Z,13.47
2023-05-13T05:50:26.541Z,12.60
2023-05-13T05:52:54.363Z,9.70
2023-05-13T05:55:22.391Z,12.17
2023-05-13T05:57:51.038Z,10.57
2023-05-13T06:00:21.210Z,11.73
2023-05-13T06:02:49.808Z,11.20
2023-05-13T06:05:17.800Z,10.13
2023-05-13T06:07:45.638Z,10.30
2023-05-13T06:10:13.904Z,10.87
2023-05-13T06:12:41.944Z,10.43
2023-05-13T06:15:11.438Z,10.27
2023-05-13T06:17:41.158Z,9.10
2023-05-13T06:20:09.610Z,8.40
2023-05-13T06:22:37.483Z,8.27
2023-05-13T06:25:06.023Z,8.03
2023-05-13T06:27:34.330Z,8.93
2023-05-13T06:30:02.152Z,6.50
2023-05-13T06:32:30.001Z,7.23
2023-05-13T06:34:59.256Z,8.90
2023-05-13T06:37:27.158Z,8.60
2023-05-13T06:39:55.011Z,8.63
2023-05-13T06:42:22.861Z,7.93
2023-05-13T06:44:50.675Z,8.40
2023-05-13T06:47:18.590Z,6.90
2023-05-13T06:49:46.509Z,7.53
2023-05-13T06:52:15.734Z,7.43
2023-05-13T06:54:43.539Z,8.00
2023-05-13T06:57:12.195Z,7.60
2023-05-13T06:59:40.039Z,9.03
2023-05-13T07:02:09.813Z,9.13
2023-05-13T07:04:37.803Z,6.87
2023-05-13T07:07:05.956Z,7.63
2023-05-13T07:09:35.435Z,8.57
2023-05-13T07:12:03.294Z,8.13
2023-05-13T07:14:31.094Z,7.90
2023-05-13T07:16:59.657Z,8.40
2023-05-13T07:19:27.528Z,9.30
2023-05-13T07:21:55.477Z,8.30
2023-05-13T07:24:23.278Z,7.77
2023-05-13T07:26:52.517Z,9.43
2023-05-13T07:29:20.303Z,8.30
2023-05-13T07:31:48.125Z,8.07
2023-05-13T07:34:16.132Z,10.40
2023-05-13T07:36:44.083Z,10.27
2023-05-13T07:39:12.000Z,9.97
2023-05-13T07:41:39.867Z,7.10
2023-05-13T07:44:12.994Z,6.27
2023-05-13T07:46:40.956Z,5.97
2023-05-13T07:49:09.104Z,7.00
2023-05-13T07:51:37.022Z,6.57
2023-05-13T07:54:04.934Z,9.17
2023-05-13T07:56:32.792Z,7.13
2023-05-13T07:59:00.598Z,6.50
2023-05-13T08:01:29.841Z,9.13
2023-05-13T08:03:57.831Z,7.50
2023-05-13T08:06:25.724Z,7.10
2023-05-13T08:08:53.569Z,6.97
2023-05-13T08:11:21.726Z,7.80
2023-05-13T08:13:49.679Z,6.13
2023-05-13T08:16:17.541Z,6.00
2023-05-13T08:18:46.737Z,6.90
2023-05-13T08:21:14.545Z,6.43
2023-05-13T08:23:45.324Z,6.83
2023-05-13T08:26:14.205Z,5.77
2023-05-13T08:28:42.667Z,5.40
2023-05-13T08:31:12.613Z,6.87
2023-05-13T08:33:41.666Z,5.70
2023-05-13T08:36:11.322Z,6.07
2023-05-13T08:38:39.203Z,8.03
2023-05-13T08:41:07.760Z,5.20
2023-05-13T08:43:37.548Z,5.40
2023-05-13T08:46:07.533Z,6.13
2023-05-13T08:48:35.843Z,6.73
2023-05-13T08:51:03.891Z,5.53
2023-05-13T08:53:34.370Z,7.53
2023-05-13T08:56:02.627Z,7.23
2023-05-13T08:58:30.553Z,6.93
2023-05-13T09:00:58.969Z,7.47
2023-05-13T09:03:29.420Z,9.07
2023-05-13T09:05:57.368Z,8.33
2023-05-13T09:08:25.215Z,9.73
2023-05-13T09:10:54.425Z,6.93
2023-05-13T09:13:23.056Z,9.23
2023-05-13T09:15:52.440Z,6.20
2023-05-13T09:18:20.363Z,9.13
2023-05-13T09:20:48.378Z,11.40
2023-05-13T09:23:16.890Z,10.33
2023-05-13T09:25:44.745Z,9.70
2023-05-13T09:28:16.235Z,10.87
2023-05-13T09:30:46.848Z,7.63
2023-05-13T09:33:16.361Z,12.43
2023-05-13T09:35:45.737Z,7.67
2023-05-13T09:38:15.617Z,8.33
2023-05-13T09:40:50.701Z,13.43
2023-05-13T09:43:21.841Z,10.47
2023-05-13T09:45:53.581Z,10.83
2023-05-13T09:48:22.479Z,7.47
2023-05-13T09:50:51.534Z,14.00
2023-05-13T09:53:20.652Z,11.83
2023-05-13T09:55:48.939Z,10.37
2023-05-13T09:58:16.916Z,9.73
2023-05-13T10:00:46.444Z,10.47
2023-05-13T10:03:15.037Z,10.97
2023-05-13T10:05:43.398Z,9.27
2023-05-13T10:08:12.886Z,11.37
2023-05-13T10:10:41.868Z,6.87
2023-05-13T10:13:11.630Z,7.97
2023-05-13T10:15:48.825Z,7.17
2023-05-13T10:18:18.983Z,11.30
2023-05-13T10:20:47.888Z,9.90
2023-05-13T10:23:16.326Z,9.73
2023-05-13T10:25:45.065Z,7.73
2023-05-13T10:28:13.385Z,10.13
2023-05-13T10:30:42.230Z,9.77
2023-05-13T10:33:10.779Z,8.53
2023-05-13T10:35:44.015Z,8.77
2023-05-13T10:38:17.425Z,11.10
2023-05-13T10:40:58.334Z,10.47
2023-05-13T10:43:29.872Z,9.43
2023-05-13T10:46:00.754Z,9.47
2023-05-13T10:48:38.973Z,8.20
2023-05-13T10:51:08.788Z,9.10
2023-05-13T10:53:39.085Z,8.07
2023-05-13T10:56:08.245Z,11.13
2023-05-13T10:58:38.238Z,9.50
2023-05-13T11:01:15.543Z,9.77
2023-05-13T11:03:51.072Z,9.00
2023-05-13T11:06:22.388Z,13.23
2023-05-13T11:08:53.075Z,12.30
2023-05-13T11:11:33.393Z,10.10
2023-05-13T11:14:08.823Z,9.13
2023-05-13T11:16:37.681Z,13.40
2023-05-13T11:19:10.344Z,8.80
2023-05-13T11:21:41.189Z,12.47
2023-05-13T11:24:09.463Z,12.27
2023-05-13T11:26:56.288Z,8.83
2023-05-13T11:29:31.956Z,9.77
2023-05-13T11:32:01.111Z,11.37
2023-05-13T11:34:29.944Z,11.80
2023-05-13T11:37:08.261Z,9.73
2023-05-13T11:39:37.130Z,9.67
2023-05-13T11:42:08.962Z,11.93
2023-05-13T11:44:37.290Z,10.93
2023-05-13T11:47:08.110Z,11.60
2023-05-13T11:49:38.897Z,9.87
2023-05-13T11:52:10.286Z,10.03
2023-05-13T11:54:46.424Z,10.67
2023-05-13T11:57:22.172Z,8.33
2023-05-13T11:59:54.588Z,9.60
2023-05-13T12:02:23.880Z,11.53
2023-05-13T12:04:52.505Z,10.03
2023-05-13T12:07:25.540Z,8.73
2023-05-13T12:09:56.403Z,11.77
2023-05-13T12:12:24.630Z,9.90
2023-05-13T12:14:52.946Z,9.70
2023-05-13T12:17:22.054Z,11.77
2023-05-13T12:20:10.295Z,9.17
2023-05-13T12:22:52.224Z,9.87
2023-05-13T12:25:40.668Z,11.73
2023-05-13T12:28:16.351Z,9.40
2023-05-13T12:30:49.976Z,8.93
2023-05-13T12:33:19.023Z,10.37
2023-05-13T12:35:49.405Z,11.83
2023-05-13T12:38:20.742Z,9.83
2023-05-13T12:40:49.786Z,9.90
2023-05-13T12:43:18.952Z,10.10
2023-05-13T12:45:48.204Z,11.00
2023-05-13T12:48:16.072Z,9.00
2023-05-13T12:50:43.873Z,10.20
2023-05-13T12:53:11.691Z,8.67
2023-05-13T12:55:40.850Z,10.37
2023-05-13T12:58:11.793Z,9.50
2023-05-13T13:00:39.655Z,8.90
2023-05-13T13:03:08.092Z,10.97
2023-05-13T13:05:36.364Z,9.67
2023-05-13T13:08:05.304Z,9.50
2023-05-13T13:10:33.302Z,9.10
2023-05-13T13:13:02.491Z,7.93
2023-05-13T13:15:30.639Z,11.27
2023-05-13T13:17:58.545Z,7.87
2023-05-13T13:20:26.457Z,8.40
2023-05-13T13:22:54.430Z,7.00
2023-05-13T13:25:22.443Z,10.40
2023-05-13T13:27:50.538Z,8.40
2023-05-13T13:30:19.663Z,10.33
2023-05-13T13:32:47.554Z,7.47
2023-05-13T13:35:15.405Z,8.27
2023-05-13T13:37:43.232Z,8.47
2023-05-13T13:40:12.657Z,10.07
2023-05-13T13:42:44.746Z,8.50
2023-05-13T13:45:13.571Z,6.50
2023-05-13T13:47:42.818Z,8.27
2023-05-13T13:50:11.766Z,8.77
2023-05-13T13:52:39.680Z,8.60
2023-05-13T13:55:08.595Z,7.30
2023-05-13T13:57:36.391Z,7.33
2023-05-13T14:00:05.103Z,7.67
2023-05-13T14:02:33.159Z,6.90
2023-05-13T14:05:02.372Z,7.33
2023-05-13T14:07:30.336Z,6.60
2023-05-13T14:10:00.945Z,7.87
2023-05-13T14:12:29.349Z,7.60
2023-05-13T14:14:57.177Z,7.37
2023-05-13T14:17:25.263Z,7.40
2023-05-13T14:19:55.128Z,6.33
2023-05-13T14:22:24.537Z,6.80
2023-05-13T14:24:52.899Z,8.03
2023-05-13T14:27:21.936Z,7.00
2023-05-13T14:29:49.927Z,7.30
2023-05-13T14:32:17.980Z,6.67
2023-05-13T14:34:46.148Z,8.10
2023-05-13T14:37:14.120Z,7.43
2023-05-13T14:39:43.300Z,7.20
2023-05-13T14:42:11.771Z,7.17
2023-05-13T14:44:41.460Z,8.53
2023-05-13T14:47:09.878Z,7.90
2023-05-13T14:49:37.813Z,6.70
2023-05-13T14:52:06.148Z,6.37
2023-05-13T14:54:35.759Z,7.37
2023-05-13T14:57:06.431Z,7.07
2023-05-13T14:59:34.466Z,7.13
2023-05-13T15:02:03.286Z,11.10
2023-05-13T15:04:31.411Z,7.30
2023-05-13T15:06:59.540Z,8.40
2023-05-13T15:09:27.382Z,7.10
2023-05-13T15:11:55.169Z,8.33
2023-05-13T15:14:26.241Z,10.13
2023-05-13T15:16:54.368Z,9.57
2023-05-13T15:19:22.349Z,7.40
2023-05-13T15:21:50.281Z,8.30
2023-05-13T15:24:18.079Z,6.53
2023-05-13T15:26:45.911Z,6.97
2023-05-13T15:29:13.725Z,6.73
2023-05-13T15:31:42.937Z,8.40
2023-05-13T15:34:11.092Z,7.67
2023-05-13T15:36:38.989Z,7.97
2023-05-13T15:39:07.258Z,9.83
2023-05-13T15:41:35.058Z,8.57
2023-05-13T15:44:02.883Z,9.30
2023-05-13T15:46:33.572Z,7.17
2023-05-13T15:49:03.423Z,7.03
2023-05-13T15:51:31.884Z,7.33
2023-05-13T15:54:00.880Z,7.80
2023-05-13T15:56:29.343Z,7.67
2023-05-13T15:58:57.186Z,7.57
2023-05-13T16:01:25.128Z,7.47
2023-05-13T16:03:53.005Z,8.27
2023-05-13T16:06:22.252Z,8.20
2023-05-13T16:08:50.095Z,8.80
2023-05-13T16:11:18.144Z,9.40
2023-05-13T16:13:45.965Z,8.13
2023-05-13T16:16:13.935Z,7.30
2023-05-13T16:18:43.176Z,8.07
2023-05-13T16:21:11.065Z,8.80
2023-05-13T16:23:40.308Z,8.10
2023-05-13T16:26:08.279Z,8.07
2023-05-13T16:28:36.150Z,8.03
2023-05-13T16:31:04.019Z,8.80
2023-05-13T16:33:32.377Z,7.93
2023-05-13T16:36:00.280Z,9.30
2023-05-13T16:38:28.154Z,9.73
2023-05-13T16:40:57.600Z,7.87
2023-05-13T16:43:25.417Z,8.80
2023-05-13T16:45:53.438Z,7.47
2023-05-13T16:48:21.335Z,8.73
2023-05-13T16:50:49.380Z,8.27
2023-05-13T16:53:17.237Z,10.13
2023-05-13T16:55:45.100Z,8.47
2023-05-13T16:58:14.258Z,9.73
2023-05-13T17:00:42.082Z,11.13
2023-05-13T17:03:10.014Z,13.20
2023-05-13T17:05:38.446Z,9.97
2023-05-13T17:08:06.522Z,12.23
2023-05-13T17:10:34.379Z,10.30
2023-05-13T17:13:02.163Z,11.77
2023-05-13T17:15:31.365Z,9.63
2023-05-13T17:17:59.185Z,10.23
2023-05-13T17:20:27.035Z,9.70
2023-05-13T17:22:54.853Z,10.63
2023-05-13T17:25:22.734Z,9.23
2023-05-13T17:27:50.612Z,8.70
2023-05-13T17:30:18.631Z,10.53
2023-05-13T17:32:47.831Z,9.53
2023-05-13T17:35:15.784Z,9.93
2023-05-13T17:37:43.595Z,9.37
2023-05-13T17:40:11.960Z,9.43
2023-05-13T17:42:39.810Z,8.33
2023-05-13T17:45:09.014Z,9.53
2023-05-13T17:47:36.997Z,9.43
2023-05-13T17:50:07.765Z,10.50
2023-05-13T17:52:35.639Z,7.37
2023-05-13T17:55:03.425Z,7.23
2023-05-13T17:57:31.917Z,7.87
2023-05-13T17:59:59.761Z,6.40
2023-05-13T18:02:27.721Z,8.63
2023-05-13T18:04:55.543Z,8.77
2023-05-13T18:07:25.036Z,8.30
2023-05-13T18:09:52.848Z,7.80
2023-05-13T18:12:21.188Z,7.83
2023-05-13T18:14:49.055Z,9.13
2023-05-13T18:17:16.891Z,8.10
2023-05-13T18:19:45.342Z,7.70
2023-05-13T18:22:13.154Z,10.10
2023-05-13T18:24:42.467Z,8.60
2023-05-13T18:27:10.819Z,8.77
2023-05-13T18:29:38.678Z,8.20
2023-05-13T18:32:07.005Z,7.87
2023-05-13T18:34:35.298Z,8.47
2023-05-13T18:37:03.140Z,8.77
2023-05-13T18:39:31.523Z,10.90
2023-05-13T18:42:00.685Z,7.97
2023-05-13T18:44:28.546Z,7.77
2023-05-13T18:46:56.401Z,16.87
2023-05-13T18:49:28.097Z,13.23
2023-05-13T18:51:56.017Z,16.47
2023-05-13T18:54:25.652Z,13.13
2023-05-13T18:56:53.543Z,11.27
2023-05-13T18:59:22.987Z,9.37
2023-05-13T19:01:50.959Z,8.90
2023-05-13T19:04:19.080Z,9.27
2023-05-13T19:06:47.025Z,9.47
2023-05-13T19:09:15.050Z,10.40
2023-05-13T19:11:43.025Z,14.47
2023-05-13T19:14:10.918Z,13.10
2023-05-13T19:16:40.148Z,15.93
2023-05-13T19:19:08.184Z,14.93
2023-05-13T19:21:36.054Z,16.70
2023-05-13T19:24:04.255Z,14.00
2023-05-13T19:26:32.138Z,18.43
2023-05-13T19:29:00.007Z,12.80
2023-05-13T19:31:27.920Z,9.43
2023-05-13T19:33:57.076Z,11.57
2023-05-13T19:36:26.295Z,10.90
2023-05-13T19:38:54.440Z,10.30
2023-05-13T19:41:22.469Z,11.03
2023-05-13T19:43:50.425Z,9.10
2023-05-13T19:46:18.298Z,8.87
2023-05-13T19:48:46.224Z,7.87
2023-05-13T19:51:15.462Z,7.43
2023-05-13T19:53:43.399Z,8.67
2023-05-13T19:56:11.281Z,9.13
2023-05-13T19:58:39.065Z,10.20
2023-05-13T20:01:06.903Z,10.10
2023-05-13T20:03:34.846Z,12.97
2023-05-13T20:06:02.887Z,11.07
2023-05-13T20:08:33.247Z,12.20
2023-05-13T20:11:01.113Z,9.77
2023-05-13T20:13:28.929Z,11.17
2023-05-13T20:15:57.033Z,11.87
2023-05-13T20:18:24.955Z,10.80
2023-05-13T20:20:53.742Z,11.90
2023-05-13T20:23:21.641Z,9.27
2023-05-13T20:25:50.893Z,9.33
2023-05-13T20:28:19.003Z,15.67
2023-05-13T20:30:46.834Z,12.10
2023-05-13T20:33:14.802Z,11.30
2023-05-13T20:35:42.607Z,16.30
2023-05-13T20:38:10.471Z,19.03
2023-05-13T20:40:38.287Z,14.37
2023-05-13T20:43:08.004Z,14.40
2023-05-13T20:45:39.089Z,12.07
2023-05-13T20:48:08.047Z,9.77
2023-05-13T20:50:36.748Z,8.93
2023-05-13T20:53:04.569Z,8.80
2023-05-13T20:55:32.402Z,7.43
2023-05-13T20:58:00.195Z,9.27
2023-05-13T21:00:29.406Z,7.63
2023-05-13T21:02:57.320Z,13.30
2023-05-13T21:05:25.316Z,17.40
2023-05-13T21:07:54.006Z,11.23
2023-05-13T21:10:22.293Z,9.90
2023-05-13T21:12:51.187Z,10.43
2023-05-13T21:15:19.224Z,10.03
2023-05-13T21:17:48.445Z,10.40
2023-05-13T21:20:16.468Z,9.53
2023-05-13T21:22:44.266Z,10.87
2023-05-13T21:25:12.275Z,11.13
2023-05-13T21:27:40.430Z,11.23
2023-05-13T21:30:10.119Z,9.97
2023-05-13T21:32:37.920Z,10.43
2023-05-13T21:35:08.469Z,10.60
2023-05-13T21:37:36.280Z,9.60
2023-05-13T21:40:05.189Z,9.97
2023-05-13T21:42:33.027Z,9.43
2023-05-13T21:45:00.841Z,9.93
2023-05-13T21:47:29.431Z,9.17
2023-05-13T21:49:57.526Z,12.77
2023-05-13T21:52:26.711Z,11.33
2023-05-13T21:54:54.507Z,10.47
2023-05-13T21:57:22.524Z,10.53
2023-05-13T21:59:50.363Z,10.70
2023-05-13T22:02:18.290Z,8.83
2023-05-13T22:04:46.331Z,11.00
2023-05-13T22:07:14.411Z,9.10
2023-05-13T22:09:43.538Z,9.20
2023-05-13T22:12:11.354Z,8.83
2023-05-13T22:14:39.144Z,9.50
2023-05-13T22:17:09.103Z,7.73
2023-05-13T22:19:37.826Z,7.77
2023-05-13T22:22:06.101Z,8.33
2023-05-13T22:24:33.908Z,7.77
2023-05-13T22:27:03.269Z,8.57
2023-05-13T22:29:31.289Z,9.53
2023-05-13T22:31:59.321Z,8.40
2023-05-13T22:34:27.624Z,9.00
2023-05-13T22:36:55.473Z,9.50
2023-05-13T22:39:23.281Z,10.67
2023-05-13T22:41:51.064Z,11.47
2023-05-13T22:44:20.233Z,11.33
2023-05-13T22:46:48.198Z,13.53
2023-05-13T22:49:16.211Z,10.97
2023-05-13T22:51:44.219Z,11.23
2023-05-13T22:54:12.125Z,10.27
2023-05-13T22:56:39.934Z,10.80
2023-05-13T22:59:07.733Z,10.13
2023-05-13T23:01:36.927Z,10.20
2023-05-13T23:04:05.669Z,11.33
2023-05-13T23:06:33.622Z,8.73
2023-05-13T23:09:01.797Z,7.77
2023-05-13T23:11:29.635Z,8.60
2023-05-13T23:13:57.436Z,7.50
2023-05-13T23:16:25.348Z,6.90
2023-05-13T23:18:55.889Z,8.20
2023-05-13T23:21:23.767Z,8.93
2023-05-13T23:23:52.070Z,8.03
2023-05-13T23:26:19.914Z,20.03
2023-05-13T23:28:47.726Z,25.17
2023-05-13T23:31:16.420Z,16.70
2023-05-13T23:33:44.229Z,13.40
2023-05-13T23:36:14.002Z,11.37
2023-05-13T23:38:41.810Z,10.43
2023-05-13T23:41:09.621Z,8.20
2023-05-13T23:43:37.422Z,8.17
2023-05-13T23:46:05.489Z,8.23
2023-05-13T23:48:33.355Z,7.80
2023-05-13T23:51:01.140Z,7.80
2023-05-13T23:53:30.311Z,8.70
2023-05-13T23:55:58.152Z,8.27
2023-05-13T23:58:25.985Z,7.70
